createdAt,value
2017-08-31T00:00:44.604Z,973.8
2017-08-31T00:01:47.132Z,973.8
2017-08-31T00:02:49.312Z,973.7
2017-08-31T00:03:51.495Z,973.8
2017-08-31T00:04:53.660Z,973.8
2017-08-31T00:05:55.798Z,973.9
2017-08-31T00:06:59.778Z,974
2017-08-31T00:08:01.845Z,974
2017-08-31T00:09:03.991Z,974
2017-08-31T00:10:06.073Z,974
2017-08-31T00:11:08.197Z,974.1
2017-08-31T00:12:10.592Z,974.1
2017-08-31T00:13:12.753Z,974.1
2017-08-31T00:14:14.894Z,974.1
2017-08-31T00:15:16.987Z,974
2017-08-31T00:16:19.153Z,974.1
2017-08-31T00:17:21.681Z,974
2017-08-31T00:18:23.742Z,974
2017-08-31T00:19:25.903Z,974
2017-08-31T00:20:28.023Z,974
2017-08-31T00:21:32.110Z,974
2017-08-31T00:22:34.511Z,974
2017-08-31T00:23:36.737Z,974.1
2017-08-31T00:24:38.875Z,974.1
2017-08-31T00:25:40.926Z,974.1
2017-08-31T00:26:43.008Z,974.1
2017-08-31T00:27:45.480Z,974.1
2017-08-31T00:28:47.850Z,974.2
2017-08-31T00:29:50.036Z,974.1
2017-08-31T00:30:52.171Z,974.1
2017-08-31T00:31:54.263Z,974.2
2017-08-31T00:32:56.717Z,974.2
2017-08-31T00:33:58.802Z,974.3
2017-08-31T00:35:00.976Z,974.3
2017-08-31T00:36:03.251Z,974.3
2017-08-31T00:37:05.403Z,974.3
2017-08-31T00:38:07.780Z,974.3
2017-08-31T00:39:09.901Z,974.3
2017-08-31T00:40:12.038Z,974.3
2017-08-31T00:41:14.219Z,974.3
2017-08-31T00:42:16.287Z,974.3
2017-08-31T00:43:18.638Z,974.4
2017-08-31T00:44:20.696Z,974.4
2017-08-31T00:45:22.836Z,974.4
2017-08-31T00:46:24.946Z,974.5
2017-08-31T00:47:27.100Z,974.4
2017-08-31T00:48:29.464Z,974.3
2017-08-31T00:49:31.637Z,974.5
2017-08-31T00:50:33.757Z,974.4
2017-08-31T00:51:35.848Z,974.4
2017-08-31T00:52:37.955Z,974.4
2017-08-31T00:53:40.382Z,974.3
2017-08-31T00:54:42.501Z,974.3
2017-08-31T00:55:44.653Z,974.3
2017-08-31T00:56:46.756Z,974.3
2017-08-31T00:57:48.845Z,974.3
2017-08-31T00:58:51.275Z,974.4
2017-08-31T00:59:53.390Z,974.3
2017-08-31T01:00:55.491Z,974.4
2017-08-31T01:01:57.606Z,974.3
2017-08-31T01:02:59.773Z,974.3
2017-08-31T01:04:02.235Z,974.3
2017-08-31T01:05:04.257Z,974.3
2017-08-31T01:06:06.410Z,974.3
2017-08-31T01:07:08.526Z,974.3
2017-08-31T01:08:10.663Z,974.3
2017-08-31T01:09:13.076Z,974.3
2017-08-31T01:10:15.829Z,974.3
2017-08-31T01:11:17.897Z,974.3
2017-08-31T01:12:20.001Z,974.3
2017-08-31T01:13:22.219Z,974.3
2017-08-31T01:14:24.672Z,974.3
2017-08-31T01:15:26.731Z,974.3
2017-08-31T01:16:28.838Z,974.3
2017-08-31T01:17:30.963Z,974.4
2017-08-31T01:18:33.119Z,974.3
2017-08-31T01:19:35.519Z,974.3
2017-08-31T01:20:37.753Z,974.3
2017-08-31T01:21:40.026Z,974.3
2017-08-31T01:22:42.114Z,974.3
2017-08-31T01:23:44.205Z,974.4
2017-08-31T01:24:46.873Z,974.4
2017-08-31T01:25:48.965Z,974.3
2017-08-31T01:26:51.113Z,974.4
2017-08-31T01:27:53.192Z,974.3
2017-08-31T01:28:55.284Z,974.3
2017-08-31T01:29:57.661Z,974.3
2017-08-31T01:30:59.734Z,974.3
2017-08-31T01:32:01.813Z,974.4
2017-08-31T01:33:04.194Z,974.4
2017-08-31T01:34:06.264Z,974.4
2017-08-31T01:35:08.656Z,974.4
2017-08-31T01:36:10.774Z,974.3
2017-08-31T01:37:12.876Z,974.4
2017-08-31T01:38:15.006Z,974.4
2017-08-31T01:39:17.024Z,974.4
2017-08-31T01:40:19.456Z,974.5
2017-08-31T01:41:21.491Z,974.5
2017-08-31T01:42:23.565Z,974.5
2017-08-31T01:43:25.699Z,974.5
2017-08-31T01:44:27.759Z,974.5
2017-08-31T01:45:30.147Z,974.5
2017-08-31T01:46:32.249Z,974.5
2017-08-31T01:47:34.333Z,974.5
2017-08-31T01:48:36.445Z,974.5
2017-08-31T01:49:38.502Z,974.5
2017-08-31T01:50:40.925Z,974.4
2017-08-31T01:51:42.990Z,974.4
2017-08-31T01:52:45.086Z,974.4
2017-08-31T01:53:47.244Z,974.4
2017-08-31T01:54:49.336Z,974.4
2017-08-31T01:55:52.006Z,974.4
2017-08-31T01:56:54.051Z,974.5
2017-08-31T01:57:56.148Z,974.5
2017-08-31T01:58:58.265Z,974.6
2017-08-31T02:00:00.382Z,974.5
2017-08-31T02:01:02.756Z,974.5
2017-08-31T02:02:04.839Z,974.5
2017-08-31T02:03:06.935Z,974.5
2017-08-31T02:04:08.972Z,974.5
2017-08-31T02:05:11.032Z,974.5
2017-08-31T02:06:13.465Z,974.4
2017-08-31T02:07:15.549Z,974.5
2017-08-31T02:08:17.634Z,974.4
2017-08-31T02:09:19.729Z,974.4
2017-08-31T02:10:21.880Z,974.4
2017-08-31T02:11:24.270Z,974.4
2017-08-31T02:12:26.348Z,974.4
2017-08-31T02:13:30.481Z,974.3
2017-08-31T02:14:32.588Z,974.4
2017-08-31T02:15:34.753Z,974.4
2017-08-31T02:16:37.186Z,974.4
2017-08-31T02:17:39.260Z,974.4
2017-08-31T02:18:41.350Z,974.4
2017-08-31T02:19:43.438Z,974.4
2017-08-31T02:20:45.527Z,974.3
2017-08-31T02:21:48.014Z,974.3
2017-08-31T02:22:50.232Z,974.4
2017-08-31T02:23:52.324Z,974.3
2017-08-31T02:24:54.438Z,974.3
2017-08-31T02:25:56.554Z,974.3
2017-08-31T02:26:59.117Z,974.2
2017-08-31T02:28:01.294Z,974.2
2017-08-31T02:29:03.312Z,974.2
2017-08-31T02:30:05.453Z,974.1
2017-08-31T02:31:07.537Z,974.1
2017-08-31T02:32:09.980Z,974.1
2017-08-31T02:33:12.056Z,974.1
2017-08-31T02:34:14.193Z,974.1
2017-08-31T02:35:16.279Z,974.1
2017-08-31T02:36:18.360Z,974
2017-08-31T02:37:20.719Z,974.1
2017-08-31T02:38:22.820Z,974.1
2017-08-31T02:39:24.940Z,974.1
2017-08-31T02:40:27.058Z,974.2
2017-08-31T02:41:29.115Z,974.1
2017-08-31T02:42:31.461Z,974.2
2017-08-31T02:43:33.722Z,974.3
2017-08-31T02:44:35.893Z,974.2
2017-08-31T02:45:38.009Z,974.3
2017-08-31T02:46:40.112Z,974.2
2017-08-31T02:47:42.669Z,974.2
2017-08-31T02:48:44.778Z,974.2
2017-08-31T02:49:46.842Z,974.3
2017-08-31T02:50:48.976Z,974.3
2017-08-31T02:51:51.033Z,974.3
2017-08-31T02:52:53.477Z,974.2
2017-08-31T02:53:55.846Z,974.2
2017-08-31T02:54:57.990Z,974.1
2017-08-31T02:56:00.098Z,974.1
2017-08-31T02:57:02.202Z,974.1
2017-08-31T02:58:04.603Z,974.2
2017-08-31T02:59:06.672Z,974.2
2017-08-31T03:00:08.725Z,974.1
2017-08-31T03:01:11.064Z,974.1
2017-08-31T03:02:13.201Z,974.1
2017-08-31T03:03:15.516Z,974.2
2017-08-31T03:04:17.583Z,974.2
2017-08-31T03:05:19.650Z,974.1
2017-08-31T03:06:21.802Z,974.1
2017-08-31T03:07:24.056Z,974.2
2017-08-31T03:08:26.474Z,974.2
2017-08-31T03:09:28.641Z,974.2
2017-08-31T03:10:30.811Z,974.2
2017-08-31T03:11:32.926Z,974.2
2017-08-31T03:12:35.002Z,974.2
2017-08-31T03:13:37.454Z,974.2
2017-08-31T03:14:39.650Z,974.2
2017-08-31T03:15:41.741Z,974.1
2017-08-31T03:16:43.837Z,974.2
2017-08-31T03:17:45.915Z,974.1
2017-08-31T03:18:48.393Z,974.1
2017-08-31T03:19:50.543Z,974.1
2017-08-31T03:20:52.641Z,974.2
2017-08-31T03:21:54.744Z,974.2
2017-08-31T03:22:56.825Z,974.2
2017-08-31T03:23:59.220Z,974.1
2017-08-31T03:25:03.448Z,974.1
2017-08-31T03:26:05.602Z,974.1
2017-08-31T03:27:07.699Z,974.1
2017-08-31T03:28:09.747Z,974.1
2017-08-31T03:29:12.328Z,974.1
2017-08-31T03:30:14.451Z,974.1
2017-08-31T03:31:16.636Z,974.1
2017-08-31T03:32:18.724Z,974.2
2017-08-31T03:33:22.824Z,974.2
2017-08-31T03:34:25.331Z,974.2
2017-08-31T03:35:27.353Z,974.2
2017-08-31T03:36:29.428Z,974.3
2017-08-31T03:37:31.549Z,974.3
2017-08-31T03:38:33.626Z,974.3
2017-08-31T03:39:36.038Z,974.4
2017-08-31T03:40:38.161Z,974.4
2017-08-31T03:41:40.247Z,974.3
2017-08-31T03:42:42.360Z,974.4
2017-08-31T03:43:44.457Z,974.3
2017-08-31T03:44:47.033Z,974.2
2017-08-31T03:45:49.106Z,974.3
2017-08-31T03:46:51.240Z,974.4
2017-08-31T03:47:53.275Z,974.3
2017-08-31T03:48:55.389Z,974.4
2017-08-31T03:49:57.937Z,974.4
2017-08-31T03:51:00.060Z,974.4
2017-08-31T03:52:02.266Z,974.4
2017-08-31T03:53:04.289Z,974.4
2017-08-31T03:54:09.535Z,974.4
2017-08-31T03:55:12.106Z,974.3
2017-08-31T03:56:14.179Z,974.3
2017-08-31T03:57:16.334Z,974.3
2017-08-31T03:58:18.418Z,974.3
2017-08-31T03:59:20.537Z,974.4
2017-08-31T04:00:22.988Z,974.4
2017-08-31T04:01:25.095Z,974.4
2017-08-31T04:02:27.202Z,974.4
2017-08-31T04:03:29.338Z,974.5
2017-08-31T04:04:31.405Z,974.4
2017-08-31T04:05:33.918Z,974.4
2017-08-31T04:06:35.949Z,974.4
2017-08-31T04:07:37.991Z,974.4
2017-08-31T04:08:40.079Z,974.3
2017-08-31T04:09:42.153Z,974.5
2017-08-31T04:10:44.564Z,974.4
2017-08-31T04:11:46.689Z,974.4
2017-08-31T04:12:48.789Z,974.6
2017-08-31T04:13:50.943Z,974.5
2017-08-31T04:14:53.079Z,974.5
2017-08-31T04:15:55.560Z,974.5
2017-08-31T04:16:57.676Z,974.5
2017-08-31T04:17:59.758Z,974.5
2017-08-31T04:19:01.797Z,974.5
2017-08-31T04:20:05.547Z,974.5
2017-08-31T04:21:08.089Z,974.5
2017-08-31T04:22:10.189Z,974.5
2017-08-31T04:23:12.480Z,974.6
2017-08-31T04:24:14.632Z,974.5
2017-08-31T04:25:16.764Z,974.5
2017-08-31T04:26:19.114Z,974.5
2017-08-31T04:27:21.200Z,974.5
2017-08-31T04:28:24.085Z,974.5
2017-08-31T04:29:26.138Z,974.5
2017-08-31T04:30:28.357Z,974.5
2017-08-31T04:31:30.717Z,974.5
2017-08-31T04:32:32.868Z,974.5
2017-08-31T04:33:34.995Z,974.5
2017-08-31T04:34:37.061Z,974.4
2017-08-31T04:35:39.213Z,974.4
2017-08-31T04:36:41.579Z,974.4
2017-08-31T04:37:43.629Z,974.4
2017-08-31T04:38:45.696Z,974.5
2017-08-31T04:39:47.779Z,974.5
2017-08-31T04:40:49.935Z,974.5
2017-08-31T04:41:52.567Z,974.5
2017-08-31T04:42:54.669Z,974.6
2017-08-31T04:43:56.775Z,974.6
2017-08-31T04:44:58.858Z,974.6
2017-08-31T04:46:00.990Z,974.6
2017-08-31T04:47:03.486Z,974.6
2017-08-31T04:48:05.538Z,974.6
2017-08-31T04:49:07.578Z,974.7
2017-08-31T04:50:09.645Z,974.6
2017-08-31T04:51:11.666Z,974.7
2017-08-31T04:52:14.131Z,974.6
2017-08-31T04:53:16.185Z,974.6
2017-08-31T04:54:18.346Z,974.7
2017-08-31T04:55:20.467Z,974.6
2017-08-31T04:56:22.528Z,974.6
2017-08-31T04:57:25.073Z,974.6
2017-08-31T04:58:27.141Z,974.6
2017-08-31T04:59:29.229Z,974.6
2017-08-31T05:00:31.338Z,974.6
2017-08-31T05:01:33.408Z,974.6
2017-08-31T05:02:35.910Z,974.5
2017-08-31T05:03:38.001Z,974.6
2017-08-31T05:04:40.070Z,974.6
2017-08-31T05:05:42.152Z,974.6
2017-08-31T05:06:44.255Z,974.6
2017-08-31T05:07:47.382Z,974.7
2017-08-31T05:08:49.534Z,974.8
2017-08-31T05:09:51.805Z,974.7
2017-08-31T05:10:53.895Z,974.8
2017-08-31T05:11:56.070Z,974.7
2017-08-31T05:12:58.473Z,974.6
2017-08-31T05:14:00.612Z,974.6
2017-08-31T05:15:02.746Z,974.6
2017-08-31T05:16:04.837Z,974.6
2017-08-31T05:17:06.929Z,974.5
2017-08-31T05:18:09.445Z,974.6
2017-08-31T05:19:11.579Z,974.6
2017-08-31T05:20:14.138Z,974.6
2017-08-31T05:21:16.279Z,974.6
2017-08-31T05:22:18.426Z,974.6
2017-08-31T05:23:20.791Z,974.6
2017-08-31T05:24:22.827Z,974.6
2017-08-31T05:25:24.952Z,974.6
2017-08-31T05:26:27.079Z,974.6
2017-08-31T05:27:29.204Z,974.7
2017-08-31T05:28:31.602Z,974.7
2017-08-31T05:29:33.701Z,974.7
2017-08-31T05:30:35.965Z,974.7
2017-08-31T05:31:38.184Z,974.8
2017-08-31T05:32:40.282Z,974.8
2017-08-31T05:33:42.751Z,974.7
2017-08-31T05:34:44.812Z,974.7
2017-08-31T05:35:46.889Z,974.8
2017-08-31T05:36:49.004Z,974.7
2017-08-31T05:37:51.632Z,974.7
2017-08-31T05:39:01.274Z,974.7
2017-08-31T05:40:03.397Z,974.7
2017-08-31T05:41:05.532Z,974.7
2017-08-31T05:42:07.671Z,974.7
2017-08-31T05:43:09.789Z,974.7
2017-08-31T05:44:12.189Z,974.7
2017-08-31T05:45:14.360Z,974.6
2017-08-31T05:46:16.473Z,974.6
2017-08-31T05:47:18.751Z,974.6
2017-08-31T05:48:20.954Z,974.7
2017-08-31T05:49:23.463Z,974.6
2017-08-31T05:50:25.572Z,974.5
2017-08-31T05:51:27.683Z,974.6
2017-08-31T05:52:29.844Z,974.7
2017-08-31T05:53:31.902Z,974.7
2017-08-31T05:54:34.326Z,974.8
2017-08-31T05:55:38.458Z,974.7
2017-08-31T05:56:40.527Z,974.8
2017-08-31T05:57:42.603Z,974.8
2017-08-31T05:58:44.744Z,974.9
2017-08-31T05:59:47.230Z,974.8
2017-08-31T06:00:49.376Z,974.8
2017-08-31T06:01:51.595Z,974.8
2017-08-31T06:02:53.716Z,974.8
2017-08-31T06:03:55.833Z,974.9
2017-08-31T06:04:58.264Z,975
2017-08-31T06:06:00.348Z,975
2017-08-31T06:07:02.445Z,975
2017-08-31T06:08:04.589Z,975
2017-08-31T06:09:06.680Z,974.9
2017-08-31T06:10:10.473Z,974.9
2017-08-31T06:11:12.564Z,974.9
2017-08-31T06:12:14.640Z,975
2017-08-31T06:13:16.813Z,975
2017-08-31T06:14:18.890Z,975
2017-08-31T06:15:21.390Z,975.1
2017-08-31T06:16:23.501Z,975
2017-08-31T06:17:25.658Z,975.1
2017-08-31T06:18:27.795Z,975
2017-08-31T06:19:29.871Z,975.1
2017-08-31T06:20:32.305Z,975.1
2017-08-31T06:21:36.536Z,975.2
2017-08-31T06:22:38.651Z,975.2
2017-08-31T06:23:40.785Z,975.2
2017-08-31T06:24:42.929Z,975.1
2017-08-31T06:25:45.309Z,975.1
2017-08-31T06:26:47.454Z,975.1
2017-08-31T06:27:49.628Z,975.1
2017-08-31T06:28:51.754Z,975.1
2017-08-31T06:29:58.394Z,975.1
2017-08-31T06:31:01.127Z,975.1
2017-08-31T06:32:03.293Z,975.1
2017-08-31T06:33:05.918Z,975.1
2017-08-31T06:34:08.099Z,975.1
2017-08-31T06:35:10.226Z,975.1
2017-08-31T06:36:12.838Z,975.1
2017-08-31T06:37:15.009Z,975.1
2017-08-31T06:38:17.125Z,975.1
2017-08-31T06:39:19.828Z,975.1
2017-08-31T06:40:22.189Z,975
2017-08-31T06:41:24.529Z,975.1
2017-08-31T06:42:26.649Z,975.1
2017-08-31T06:43:28.830Z,975.2
2017-08-31T06:44:30.969Z,975.2
2017-08-31T06:45:33.397Z,975.2
2017-08-31T06:46:35.871Z,975.2
2017-08-31T06:47:37.985Z,975.2
2017-08-31T06:48:40.105Z,975.2
2017-08-31T06:49:42.304Z,975.2
2017-08-31T06:50:44.464Z,975.2
2017-08-31T06:51:46.890Z,975.2
2017-08-31T06:52:48.974Z,975.3
2017-08-31T06:53:51.036Z,975.2
2017-08-31T06:54:53.150Z,975.4
2017-08-31T06:55:55.190Z,975.4
2017-08-31T06:56:57.612Z,975.4
2017-08-31T06:57:59.691Z,975.5
2017-08-31T06:59:01.745Z,975.5
2017-08-31T07:00:03.890Z,975.6
2017-08-31T07:01:06.042Z,975.5
2017-08-31T07:02:08.810Z,975.5
2017-08-31T07:03:10.956Z,975.5
2017-08-31T07:04:13.076Z,975.5
2017-08-31T07:05:15.261Z,975.5
2017-08-31T07:06:17.338Z,975.6
2017-08-31T07:07:19.891Z,975.5
2017-08-31T07:08:22.029Z,975.4
2017-08-31T07:09:24.172Z,975.4
2017-08-31T07:10:26.242Z,975.5
2017-08-31T07:11:28.313Z,975.4
2017-08-31T07:12:30.688Z,975.5
2017-08-31T07:13:35.004Z,975.4
2017-08-31T07:14:37.070Z,975.4
2017-08-31T07:15:39.222Z,975.5
2017-08-31T07:16:41.317Z,975.5
2017-08-31T07:17:43.761Z,975.5
2017-08-31T07:18:45.878Z,975.4
2017-08-31T07:19:47.954Z,975.5
2017-08-31T07:20:50.137Z,975.5
2017-08-31T07:21:52.302Z,975.5
2017-08-31T07:22:54.835Z,975.4
2017-08-31T07:23:56.984Z,975.4
2017-08-31T07:24:59.059Z,975.4
2017-08-31T07:26:01.173Z,975.4
2017-08-31T07:27:03.326Z,975.4
2017-08-31T07:28:05.747Z,975.4
2017-08-31T07:29:07.810Z,975.5
2017-08-31T07:30:09.919Z,975.6
2017-08-31T07:31:11.984Z,975.7
2017-08-31T07:32:14.082Z,975.7
2017-08-31T07:33:16.531Z,975.7
2017-08-31T07:34:18.765Z,975.7
2017-08-31T07:35:20.932Z,975.8
2017-08-31T07:36:23.147Z,975.7
2017-08-31T07:37:25.311Z,975.8
2017-08-31T07:38:27.749Z,975.8
2017-08-31T07:39:33.298Z,975.9
2017-08-31T07:40:35.396Z,975.8
2017-08-31T07:41:37.543Z,975.8
2017-08-31T07:42:41.946Z,975.8
2017-08-31T07:43:44.299Z,975.8
2017-08-31T07:44:46.413Z,975.8
2017-08-31T07:45:48.575Z,975.8
2017-08-31T07:46:50.697Z,975.8
2017-08-31T07:47:52.809Z,975.8
2017-08-31T07:48:55.150Z,975.8
2017-08-31T07:49:57.176Z,975.8
2017-08-31T07:50:59.267Z,975.8
2017-08-31T07:52:01.409Z,975.8
2017-08-31T07:53:03.528Z,975.8
2017-08-31T07:54:05.983Z,975.9
2017-08-31T07:55:08.093Z,975.8
2017-08-31T07:56:10.228Z,975.9
2017-08-31T07:57:14.170Z,975.9
2017-08-31T07:58:16.279Z,975.8
2017-08-31T07:59:20.124Z,976
2017-08-31T08:00:22.269Z,976
2017-08-31T08:01:24.404Z,975.9
2017-08-31T08:02:26.472Z,976
2017-08-31T08:03:28.565Z,976
2017-08-31T08:04:30.963Z,976
2017-08-31T08:05:33.110Z,976
2017-08-31T08:06:35.236Z,976.1
2017-08-31T08:07:37.295Z,976
2017-08-31T08:08:40.083Z,976
2017-08-31T08:09:42.415Z,976
2017-08-31T08:10:44.515Z,976
2017-08-31T08:11:46.590Z,976.1
2017-08-31T08:12:48.747Z,976.2
2017-08-31T08:13:52.547Z,976.3
2017-08-31T08:14:54.905Z,976.3
2017-08-31T08:15:57.001Z,976.3
2017-08-31T08:16:59.113Z,976.3
2017-08-31T08:18:01.231Z,976.4
2017-08-31T08:19:03.299Z,976.4
2017-08-31T08:20:05.683Z,976.4
2017-08-31T08:21:07.844Z,976.5
2017-08-31T08:22:10.021Z,976.4
2017-08-31T08:23:12.170Z,976.4
2017-08-31T08:24:14.268Z,976.3
2017-08-31T08:25:16.646Z,976.4
2017-08-31T08:26:18.720Z,976.5
2017-08-31T08:27:20.799Z,976.5
2017-08-31T08:28:22.982Z,976.5
2017-08-31T08:29:25.051Z,976.5
2017-08-31T08:30:27.464Z,976.5
2017-08-31T08:31:29.696Z,976.6
2017-08-31T08:32:31.803Z,976.6
2017-08-31T08:33:33.929Z,976.5
2017-08-31T08:34:36.030Z,976.6
2017-08-31T08:35:38.424Z,976.6
2017-08-31T08:36:40.544Z,976.6
2017-08-31T08:37:42.669Z,976.7
2017-08-31T08:38:44.710Z,976.7
2017-08-31T08:39:46.818Z,976.9
2017-08-31T08:40:49.225Z,976.9
2017-08-31T08:41:51.325Z,977
2017-08-31T08:42:53.470Z,977.1
2017-08-31T08:43:55.623Z,977.1
2017-08-31T08:44:57.758Z,977.1
2017-08-31T08:46:00.152Z,977.2
2017-08-31T08:47:02.236Z,977.2
2017-08-31T08:48:04.313Z,977.3
2017-08-31T08:49:06.495Z,977.3
2017-08-31T08:50:08.599Z,977.3
2017-08-31T08:51:10.966Z,977.4
2017-08-31T08:52:13.030Z,977.3
2017-08-31T08:53:15.152Z,977.4
2017-08-31T08:54:17.238Z,977.4
2017-08-31T08:55:19.545Z,977.5
2017-08-31T08:56:21.981Z,977.5
2017-08-31T08:57:24.072Z,977.5
2017-08-31T08:58:26.289Z,977.5
2017-08-31T08:59:28.386Z,977.5
2017-08-31T09:00:32.012Z,977.6
2017-08-31T09:01:34.441Z,977.6
2017-08-31T09:02:36.585Z,977.7
2017-08-31T09:03:39.035Z,977.7
2017-08-31T09:04:41.154Z,977.7
2017-08-31T09:05:43.310Z,977.7
2017-08-31T09:06:45.396Z,977.7
2017-08-31T09:07:47.616Z,977.7
2017-08-31T09:08:49.819Z,977.7
2017-08-31T09:09:51.945Z,977.7
2017-08-31T09:10:54.017Z,977.7
2017-08-31T09:11:56.467Z,977.8
2017-08-31T09:12:58.517Z,977.9
2017-08-31T09:14:00.640Z,977.9
2017-08-31T09:15:04.716Z,977.9
2017-08-31T09:16:06.860Z,978.1
2017-08-31T09:17:09.233Z,978
2017-08-31T09:18:11.353Z,978
2017-08-31T09:19:13.543Z,978
2017-08-31T09:20:15.630Z,978
2017-08-31T09:21:17.996Z,978
2017-08-31T09:22:20.433Z,978
2017-08-31T09:23:22.551Z,978
2017-08-31T09:24:24.658Z,978.1
2017-08-31T09:25:26.994Z,978
2017-08-31T09:26:30.900Z,978.1
2017-08-31T09:27:33.369Z,978.1
2017-08-31T09:28:35.465Z,978.1
2017-08-31T09:29:37.611Z,978.1
2017-08-31T09:30:39.720Z,978.2
2017-08-31T09:31:41.842Z,978.2
2017-08-31T09:32:44.263Z,978.2
2017-08-31T09:33:46.442Z,978.3
2017-08-31T09:34:48.556Z,978.3
2017-08-31T09:35:50.615Z,978.4
2017-08-31T09:36:52.831Z,978.3
2017-08-31T09:37:56.449Z,978.4
2017-08-31T09:38:58.589Z,978.4
2017-08-31T09:40:00.714Z,978.4
2017-08-31T09:41:05.017Z,978.4
2017-08-31T09:42:07.245Z,978.5
2017-08-31T09:43:09.660Z,978.5
2017-08-31T09:44:11.741Z,978.5
2017-08-31T09:45:13.822Z,978.5
2017-08-31T09:46:16.080Z,978.5
2017-08-31T09:47:18.290Z,978.5
2017-08-31T09:48:20.694Z,978.5
2017-08-31T09:49:24.290Z,978.5
2017-08-31T09:50:26.434Z,978.5
2017-08-31T09:51:28.524Z,978.4
2017-08-31T09:52:30.712Z,978.6
2017-08-31T09:53:33.144Z,978.6
2017-08-31T09:54:35.276Z,978.5
2017-08-31T09:55:37.445Z,978.6
2017-08-31T09:56:39.526Z,978.6
2017-08-31T09:57:41.689Z,978.6
2017-08-31T09:58:44.054Z,978.6
2017-08-31T09:59:46.223Z,978.6
2017-08-31T10:00:48.339Z,978.6
2017-08-31T10:01:50.477Z,978.6
2017-08-31T10:02:52.541Z,978.7
2017-08-31T10:03:55.379Z,978.7
2017-08-31T10:04:57.489Z,978.7
2017-08-31T10:05:59.578Z,978.7
2017-08-31T10:07:03.941Z,978.7
2017-08-31T10:08:06.046Z,978.7
2017-08-31T10:09:08.380Z,978.8
2017-08-31T10:10:10.486Z,978.7
2017-08-31T10:11:12.692Z,978.8
2017-08-31T10:12:14.749Z,978.8
2017-08-31T10:13:16.879Z,978.8
2017-08-31T10:14:19.444Z,978.8
2017-08-31T10:15:21.516Z,978.8
2017-08-31T10:16:23.715Z,978.8
2017-08-31T10:17:25.902Z,978.9
2017-08-31T10:18:28.027Z,979
2017-08-31T10:19:30.423Z,979.1
2017-08-31T10:20:32.655Z,979.1
2017-08-31T10:21:34.791Z,979
2017-08-31T10:22:36.846Z,979.2
2017-08-31T10:23:39.000Z,979.2
2017-08-31T10:24:41.361Z,979.2
2017-08-31T10:25:43.454Z,979.1
2017-08-31T10:26:45.651Z,979.2
2017-08-31T10:27:47.740Z,979.3
2017-08-31T10:28:49.932Z,979.4
2017-08-31T10:29:52.627Z,979.4
2017-08-31T10:30:54.716Z,979.4
2017-08-31T10:31:56.818Z,979.4
2017-08-31T10:32:58.979Z,979.4
2017-08-31T10:34:01.038Z,979.4
2017-08-31T10:35:03.500Z,979.4
2017-08-31T10:36:05.580Z,979.4
2017-08-31T10:37:07.713Z,979.4
2017-08-31T10:38:09.780Z,979.4
2017-08-31T10:39:11.858Z,979.3
2017-08-31T10:40:14.215Z,979.4
2017-08-31T10:41:16.282Z,979.4
2017-08-31T10:42:18.408Z,979.4
2017-08-31T10:43:20.552Z,979.4
2017-08-31T10:44:22.660Z,979.5
2017-08-31T10:45:25.153Z,979.5
2017-08-31T10:46:27.242Z,979.5
2017-08-31T10:47:30.447Z,979.5
2017-08-31T10:48:32.543Z,979.5
2017-08-31T10:49:34.725Z,979.6
2017-08-31T10:50:37.113Z,979.5
2017-08-31T10:51:39.248Z,979.5
2017-08-31T10:52:41.366Z,979.5
2017-08-31T10:53:43.535Z,979.7
2017-08-31T10:54:45.630Z,979.6
2017-08-31T10:55:50.019Z,979.6
2017-08-31T10:56:52.153Z,979.6
2017-08-31T10:57:54.272Z,979.6
2017-08-31T10:58:56.399Z,979.7
2017-08-31T10:59:58.513Z,979.8
2017-08-31T11:01:00.900Z,979.7
2017-08-31T11:02:03.040Z,979.8
2017-08-31T11:03:05.225Z,979.8
2017-08-31T11:04:07.349Z,979.8
2017-08-31T11:05:09.473Z,979.7
2017-08-31T11:06:11.893Z,979.8
2017-08-31T11:07:14.006Z,979.8
2017-08-31T11:08:16.128Z,979.7
2017-08-31T11:09:18.234Z,979.7
2017-08-31T11:10:20.403Z,979.8
2017-08-31T11:11:22.800Z,979.8
2017-08-31T11:12:24.926Z,979.8
2017-08-31T11:13:28.217Z,979.8
2017-08-31T11:14:30.309Z,979.8
2017-08-31T11:15:32.420Z,979.8
2017-08-31T11:16:34.915Z,979.9
2017-08-31T11:17:37.009Z,980
2017-08-31T11:18:39.149Z,980.1
2017-08-31T11:19:41.304Z,980
2017-08-31T11:20:43.584Z,980
2017-08-31T11:21:47.781Z,980
2017-08-31T11:22:50.098Z,980
2017-08-31T11:23:52.188Z,980
2017-08-31T11:24:54.745Z,980.1
2017-08-31T11:25:56.967Z,980
2017-08-31T11:26:59.423Z,980
2017-08-31T11:28:04.211Z,980.1
2017-08-31T11:29:06.747Z,980.1
2017-08-31T11:30:09.334Z,980.2
2017-08-31T11:31:11.912Z,980.2
2017-08-31T11:32:14.880Z,980.3
2017-08-31T11:33:17.467Z,980.2
2017-08-31T11:34:20.077Z,980.3
2017-08-31T11:35:22.659Z,980.3
2017-08-31T11:36:25.414Z,980.3
2017-08-31T11:37:28.297Z,980.3
2017-08-31T11:38:30.636Z,980.5
2017-08-31T11:39:32.807Z,980.5
2017-08-31T11:40:34.990Z,980.5
2017-08-31T11:41:37.121Z,980.5
2017-08-31T11:42:40.463Z,980.6
2017-08-31T11:43:42.591Z,980.6
2017-08-31T11:44:44.730Z,980.7
2017-08-31T11:45:46.807Z,980.7
2017-08-31T11:46:48.877Z,980.7
2017-08-31T11:47:51.375Z,980.7
2017-08-31T11:48:53.677Z,980.7
2017-08-31T11:49:55.844Z,980.8
2017-08-31T11:50:58.025Z,980.8
2017-08-31T11:52:00.218Z,980.9
2017-08-31T11:53:02.682Z,980.8
2017-08-31T11:54:04.847Z,981
2017-08-31T11:55:07.082Z,981
2017-08-31T11:56:09.210Z,981
2017-08-31T11:57:12.296Z,980.9
2017-08-31T11:58:14.678Z,980.9
2017-08-31T11:59:16.859Z,980.9
2017-08-31T12:00:19.071Z,981
2017-08-31T12:01:21.174Z,980.9
2017-08-31T12:02:23.279Z,981
2017-08-31T12:03:25.803Z,980.9
2017-08-31T12:04:27.922Z,980.9
2017-08-31T12:05:31.908Z,980.9
2017-08-31T12:06:34.147Z,980.9
2017-08-31T12:07:36.232Z,980.9
2017-08-31T12:08:38.780Z,981
2017-08-31T12:09:40.920Z,981
2017-08-31T12:10:42.986Z,980.9
2017-08-31T12:11:48.203Z,981
2017-08-31T12:12:50.344Z,981
2017-08-31T12:13:52.735Z,981
2017-08-31T12:14:54.853Z,981
2017-08-31T12:15:57.066Z,981
2017-08-31T12:16:59.240Z,981
2017-08-31T12:18:01.691Z,981
2017-08-31T12:19:04.100Z,981
2017-08-31T12:20:06.223Z,981.1
2017-08-31T12:21:08.330Z,981.1
2017-08-31T12:22:10.452Z,981.1
2017-08-31T12:23:12.559Z,981.1
2017-08-31T12:24:14.968Z,981.1
2017-08-31T12:25:17.049Z,981.1
2017-08-31T12:26:19.270Z,981.1
2017-08-31T12:27:21.490Z,981.1
2017-08-31T12:28:23.587Z,981.1
2017-08-31T12:29:26.070Z,981.1
2017-08-31T12:30:28.366Z,981.1
2017-08-31T12:31:30.551Z,981.2
2017-08-31T12:32:32.665Z,981.2
2017-08-31T12:33:34.821Z,981.3
2017-08-31T12:34:37.722Z,981.3
2017-08-31T12:35:39.790Z,981.3
2017-08-31T12:36:41.931Z,981.2
2017-08-31T12:37:44.154Z,981.3
2017-08-31T12:38:46.257Z,981.4
2017-08-31T12:39:48.679Z,981.3
2017-08-31T12:40:50.868Z,981.3
2017-08-31T12:41:52.960Z,981.3
2017-08-31T12:42:55.092Z,981.3
2017-08-31T12:43:57.216Z,981.4
2017-08-31T12:44:59.590Z,981.3
2017-08-31T12:46:01.775Z,981.3
2017-08-31T12:47:03.978Z,981.3
2017-08-31T12:48:06.150Z,981.3
2017-08-31T12:49:09.345Z,981.3
2017-08-31T12:50:11.822Z,981.3
2017-08-31T12:51:13.934Z,981.3
2017-08-31T12:52:16.158Z,981.3
2017-08-31T12:53:18.288Z,981.4
2017-08-31T12:54:20.464Z,981.4
2017-08-31T12:55:22.906Z,981.3
2017-08-31T12:56:25.058Z,981.4
2017-08-31T12:57:28.299Z,981.4
2017-08-31T12:58:30.430Z,981.5
2017-08-31T12:59:32.583Z,981.5
2017-08-31T13:00:35.135Z,981.4
2017-08-31T13:01:37.198Z,981.4
2017-08-31T13:02:39.357Z,981.4
2017-08-31T13:03:41.959Z,981.5
2017-08-31T13:04:44.106Z,981.4
2017-08-31T13:05:46.533Z,981.5
2017-08-31T13:06:48.692Z,981.4
2017-08-31T13:07:50.897Z,981.5
2017-08-31T13:08:53.022Z,981.4
2017-08-31T13:09:55.130Z,981.4
2017-08-31T13:10:57.565Z,981.4
2017-08-31T13:11:59.758Z,981.5
2017-08-31T13:13:01.922Z,981.5
2017-08-31T13:14:04.060Z,981.5
2017-08-31T13:15:06.206Z,981.5
2017-08-31T13:16:08.682Z,981.4
2017-08-31T13:17:10.849Z,981.5
2017-08-31T13:18:13.035Z,981.5
2017-08-31T13:19:15.122Z,981.3
2017-08-31T13:20:17.186Z,981.4
2017-08-31T13:21:19.246Z,981.4
2017-08-31T13:22:21.358Z,981.4
2017-08-31T13:23:23.483Z,981.4
2017-08-31T13:24:25.600Z,981.4
2017-08-31T13:25:27.713Z,981.4
2017-08-31T13:26:29.852Z,981.5